createdAt,value
2023-03-12T00:00:10.722Z,61.47
2023-03-12T00:02:37.874Z,68.73
2023-03-12T00:05:05.955Z,66.07
2023-03-12T00:07:33.105Z,63.73
2023-03-12T00:10:00.238Z,63.73
2023-03-12T00:12:27.305Z,66.43
2023-03-12T00:14:54.701Z,65.03
2023-03-12T00:17:21.759Z,64.67
2023-03-12T00:19:53.322Z,63.70
2023-03-12T00:22:23.095Z,62.17
2023-03-12T00:24:55.980Z,66.23
2023-03-12T00:27:24.743Z,60.33
2023-03-12T00:29:52.299Z,61.77
2023-03-12T00:32:19.641Z,64.13
2023-03-12T00:34:52.696Z,60.83
2023-03-12T00:37:20.392Z,66.67
2023-03-12T00:39:47.545Z,63.33
2023-03-12T00:42:15.047Z,62.90
2023-03-12T00:44:43.548Z,66.50
2023-03-12T00:47:11.824Z,72.30
2023-03-12T00:49:39.217Z,67.07
2023-03-12T00:52:06.876Z,68.83
2023-03-12T00:54:34.047Z,67.47
2023-03-12T00:57:01.751Z,67.33
2023-03-12T00:59:29.070Z,74.77
2023-03-12T01:01:56.188Z,67.97
2023-03-12T01:04:23.744Z,70.20
2023-03-12T01:06:50.995Z,69.30
2023-03-12T01:09:18.245Z,69.97
2023-03-12T01:11:45.367Z,66.73
2023-03-12T01:14:12.485Z,66.83
2023-03-12T01:16:39.679Z,64.80
2023-03-12T01:19:06.800Z,59.83
2023-03-12T01:21:33.899Z,61.63
2023-03-12T01:24:00.996Z,61.17
2023-03-12T01:26:28.111Z,67.00
2023-03-12T01:28:55.172Z,65.80
2023-03-12T01:31:22.324Z,66.40
2023-03-12T01:33:52.526Z,66.13
2023-03-12T01:36:22.562Z,65.30
2023-03-12T01:38:52.873Z,60.10
2023-03-12T01:41:21.149Z,63.30
2023-03-12T01:43:48.243Z,62.53
2023-03-12T01:46:30.605Z,65.33
2023-03-12T01:49:00.436Z,67.03
2023-03-12T01:51:54.932Z,63.67
2023-03-12T01:54:32.290Z,63.70
2023-03-12T01:57:00.396Z,69.30
2023-03-12T01:59:36.194Z,66.83
2023-03-12T02:02:05.612Z,69.40
2023-03-12T02:04:33.696Z,66.73
2023-03-12T02:07:09.116Z,65.37
2023-03-12T02:09:44.341Z,111.23
2023-03-12T02:12:12.749Z,60.77
2023-03-12T02:14:40.301Z,64.20
2023-03-12T02:17:09.079Z,62.03
2023-03-12T02:19:52.912Z,62.20
2023-03-12T02:22:22.383Z,63.40
2023-03-12T02:25:04.091Z,67.27
2023-03-12T02:27:36.574Z,64.80
2023-03-12T02:30:06.951Z,62.10
2023-03-12T02:32:38.918Z,67.63
2023-03-12T02:35:07.665Z,63.27
2023-03-12T02:37:34.952Z,62.57
2023-03-12T02:40:42.622Z,65.53
2023-03-12T02:43:11.016Z,61.20
2023-03-12T02:45:39.295Z,64.77
2023-03-12T02:48:09.286Z,64.90
2023-03-12T02:50:36.503Z,69.03
2023-03-12T02:53:03.616Z,62.43
2023-03-12T02:55:30.809Z,65.13
2023-03-12T02:57:58.134Z,65.20
2023-03-12T03:00:25.424Z,61.57
2023-03-12T03:02:52.466Z,63.40
2023-03-12T03:05:20.593Z,65.57
2023-03-12T03:07:47.837Z,63.47
2023-03-12T03:10:17.628Z,66.30
2023-03-12T03:12:44.783Z,66.23
2023-03-12T03:15:12.678Z,64.20
2023-03-12T03:17:39.907Z,67.77
2023-03-12T03:20:11.297Z,64.30
2023-03-12T03:22:39.930Z,66.10
2023-03-12T03:25:09.495Z,65.70
2023-03-12T03:27:49.924Z,65.63
2023-03-12T03:30:17.567Z,65.70
2023-03-12T03:32:44.896Z,69.50
2023-03-12T03:35:12.451Z,67.00
2023-03-12T03:37:40.033Z,71.13
2023-03-12T03:40:11.904Z,71.17
2023-03-12T03:42:40.208Z,67.70
2023-03-12T03:45:08.812Z,65.17
2023-03-12T03:47:36.829Z,79.17
2023-03-12T03:50:06.492Z,67.87
2023-03-12T03:52:34.260Z,69.33
2023-03-12T03:55:01.572Z,74.07
2023-03-12T03:57:29.680Z,69.77
2023-03-12T04:00:00.402Z,68.50
2023-03-12T04:02:29.465Z,70.63
2023-03-12T04:05:00.001Z,75.40
2023-03-12T04:07:28.508Z,71.20
2023-03-12T04:09:57.810Z,69.20
2023-03-12T04:12:26.210Z,68.20
2023-03-12T04:14:53.700Z,69.83
2023-03-12T04:17:20.895Z,68.40
2023-03-12T04:19:48.294Z,69.00
2023-03-12T04:22:15.466Z,70.90
2023-03-12T04:24:42.683Z,71.97
2023-03-12T04:27:09.804Z,65.50
2023-03-12T04:29:39.254Z,71.77
2023-03-12T04:32:07.211Z,68.73
2023-03-12T04:34:34.824Z,68.70
2023-03-12T04:37:03.146Z,73.97
2023-03-12T04:39:30.542Z,70.10
2023-03-12T04:41:57.786Z,65.73
2023-03-12T04:44:24.841Z,67.83
2023-03-12T04:46:51.989Z,66.80
2023-03-12T04:49:19.446Z,73.80
2023-03-12T04:51:46.722Z,70.20
2023-03-12T04:54:13.859Z,68.20
2023-03-12T04:56:41.187Z,70.93
2023-03-12T04:59:09.431Z,71.53
2023-03-12T05:01:37.731Z,73.37
2023-03-12T05:04:05.973Z,64.70
2023-03-12T05:06:34.053Z,70.00
2023-03-12T05:09:01.182Z,72.67
2023-03-12T05:11:28.419Z,65.40
2023-03-12T05:13:56.031Z,71.23
2023-03-12T05:16:23.260Z,75.23
2023-03-12T05:18:50.695Z,72.40
2023-03-12T05:21:20.580Z,71.93
2023-03-12T05:23:48.404Z,73.07
2023-03-12T05:26:24.300Z,71.57
2023-03-12T05:28:52.401Z,66.37
2023-03-12T05:31:20.077Z,66.13
2023-03-12T05:33:47.844Z,67.80
2023-03-12T05:36:16.104Z,68.73
2023-03-12T05:38:43.624Z,70.23
2023-03-12T05:41:26.260Z,67.20
2023-03-12T05:43:56.477Z,68.60
2023-03-12T05:46:26.089Z,72.13
2023-03-12T05:48:53.715Z,68.27
2023-03-12T05:51:22.925Z,67.03
2023-03-12T05:53:50.553Z,69.07
2023-03-12T05:56:19.135Z,67.00
2023-03-12T05:58:52.484Z,68.53
2023-03-12T06:01:28.184Z,68.27
2023-03-12T06:03:55.613Z,68.23
2023-03-12T06:06:23.435Z,72.70
2023-03-12T06:08:51.859Z,73.10
2023-03-12T06:11:19.167Z,68.50
2023-03-12T06:13:46.255Z,73.07
2023-03-12T06:16:26.527Z,69.53
2023-03-12T06:18:59.803Z,69.07
2023-03-12T06:21:30.802Z,73.00
2023-03-12T06:23:59.081Z,67.83
2023-03-12T06:26:27.415Z,71.57
2023-03-12T06:28:54.912Z,72.50
2023-03-12T06:31:57.109Z,71.33
2023-03-12T06:34:24.360Z,68.97
2023-03-12T06:36:57.496Z,86.93
2023-03-12T06:39:24.602Z,69.40
2023-03-12T06:41:52.097Z,73.63
2023-03-12T06:44:19.785Z,71.67
2023-03-12T06:46:47.236Z,72.13
2023-03-12T06:49:15.143Z,69.43
2023-03-12T06:51:42.615Z,75.67
2023-03-12T06:54:09.905Z,70.80
2023-03-12T06:56:37.134Z,75.13
2023-03-12T06:59:04.727Z,76.30
2023-03-12T07:01:31.969Z,70.47
2023-03-12T07:03:59.283Z,73.07
2023-03-12T07:06:26.676Z,74.70
2023-03-12T07:08:53.684Z,77.03
2023-03-12T07:11:21.076Z,78.43
2023-03-12T07:13:48.829Z,75.27
2023-03-12T07:16:16.040Z,72.77
2023-03-12T07:18:43.176Z,78.20
2023-03-12T07:21:10.156Z,72.93
2023-03-12T07:23:37.686Z,76.20
2023-03-12T07:26:06.273Z,75.03
2023-03-12T07:28:33.822Z,74.47
2023-03-12T07:31:05.253Z,71.70
2023-03-12T07:33:32.912Z,74.67
2023-03-12T07:36:00.492Z,74.80
2023-03-12T07:38:27.795Z,74.23
2023-03-12T07:40:57.745Z,71.27
2023-03-12T07:43:25.814Z,72.27
2023-03-12T07:45:53.307Z,68.80
2023-03-12T07:48:20.679Z,74.37
2023-03-12T07:50:48.634Z,70.70
2023-03-12T07:53:16.209Z,69.53
2023-03-12T07:55:46.584Z,73.33
2023-03-12T07:58:15.861Z,71.83
2023-03-12T08:00:43.592Z,72.00
2023-03-12T08:03:11.027Z,68.33
2023-03-12T08:05:38.369Z,66.67
2023-03-12T08:08:09.396Z,77.10
2023-03-12T08:10:37.657Z,71.17
2023-03-12T08:13:04.929Z,72.33
2023-03-12T08:15:32.180Z,75.97
2023-03-12T08:17:59.832Z,75.87
2023-03-12T08:20:27.115Z,77.00
2023-03-12T08:22:54.571Z,78.17
2023-03-12T08:25:21.861Z,79.20
2023-03-12T08:27:49.073Z,80.87
2023-03-12T08:30:19.193Z,83.70
2023-03-12T08:32:46.766Z,79.43
2023-03-12T08:35:14.266Z,74.82
2023-03-12T08:37:41.727Z,88.50
2023-03-12T08:40:13.425Z,73.97
2023-03-12T08:42:43.103Z,81.82
2023-03-12T08:45:12.105Z,74.27
2023-03-12T08:47:42.037Z,79.22
2023-03-12T08:50:13.021Z,72.20
2023-03-12T08:52:40.945Z,82.50
2023-03-12T08:55:08.799Z,79.72
2023-03-12T08:57:36.046Z,74.07
2023-03-12T09:00:11.592Z,76.57
2023-03-12T09:02:39.379Z,81.28
2023-03-12T09:05:07.471Z,77.70
2023-03-12T09:07:34.794Z,78.67
2023-03-12T09:10:01.814Z,79.63
2023-03-12T09:12:28.850Z,75.63
2023-03-12T09:15:03.518Z,81.15
2023-03-12T09:17:31.430Z,79.90
2023-03-12T09:19:59.044Z,80.95
2023-03-12T09:22:26.564Z,80.93
2023-03-12T09:24:53.793Z,82.70
2023-03-12T09:27:23.489Z,80.22
2023-03-12T09:30:00.835Z,79.32
2023-03-12T09:32:30.404Z,92.95
2023-03-12T09:34:58.221Z,94.47
2023-03-12T09:37:25.948Z,86.57
2023-03-12T09:39:54.218Z,106.90
2023-03-12T09:43:11.256Z,93.32
2023-03-12T09:45:43.956Z,87.78
2023-03-12T09:48:27.568Z,89.68
2023-03-12T09:50:55.193Z,100.72
2023-03-12T09:53:35.050Z,93.55
2023-03-12T09:56:10.296Z,93.00
2023-03-12T09:58:39.292Z,100.63
2023-03-12T10:01:12.485Z,96.40
2023-03-12T10:04:01.205Z,104.57
2023-03-12T10:07:13.680Z,101.97
2023-03-12T10:10:23.807Z,103.05
2023-03-12T10:13:13.022Z,105.80
2023-03-12T10:16:09.849Z,105.38
2023-03-12T10:18:52.389Z,110.85
2023-03-12T10:21:47.464Z,113.03
2023-03-12T10:24:33.020Z,116.13
2023-03-12T10:27:02.743Z,121.60
2023-03-12T10:29:42.062Z,128.07
2023-03-12T10:32:11.019Z,134.05
2023-03-12T10:35:10.113Z,138.60
2023-03-12T10:37:55.506Z,143.35
2023-03-12T10:40:26.461Z,145.82
2023-03-12T10:42:54.664Z,156.75
2023-03-12T10:45:39.269Z,165.88
2023-03-12T10:48:11.978Z,164.02
2023-03-12T10:50:41.392Z,174.43
2023-03-12T10:53:29.931Z,181.27
2023-03-12T10:56:01.566Z,182.38
2023-03-12T10:58:41.238Z,193.10
2023-03-12T11:01:29.645Z,190.02
2023-03-12T11:04:30.218Z,202.57
2023-03-12T11:07:32.034Z,199.23
2023-03-12T11:10:08.068Z,196.98
2023-03-12T11:12:38.308Z,208.25
2023-03-12T11:15:38.702Z,206.75
2023-03-12T11:18:22.855Z,214.45
2023-03-12T11:20:53.158Z,224.13
2023-03-12T11:23:43.288Z,234.93
2023-03-12T11:26:23.428Z,242.35
2023-03-12T11:29:04.754Z,254.85
2023-03-12T11:31:41.873Z,257.20
2023-03-12T11:34:21.968Z,275.83
2023-03-12T11:37:10.675Z,279.90
2023-03-12T11:40:18.923Z,298.42
2023-03-12T11:43:01.332Z,304.70
2023-03-12T11:46:11.778Z,318.00
2023-03-12T11:48:59.229Z,327.20
2023-03-12T11:51:55.846Z,342.52
2023-03-12T11:54:54.501Z,348.67
2023-03-12T11:57:31.033Z,362.20
2023-03-12T12:00:21.693Z,370.73
2023-03-12T12:02:58.986Z,377.27
2023-03-12T12:05:31.862Z,388.13
2023-03-12T12:08:42.646Z,393.45
2023-03-12T12:12:05.340Z,397.73
2023-03-12T12:15:08.398Z,399.80
2023-03-12T12:18:21.494Z,399.02
2023-03-12T12:21:06.194Z,407.70
2023-03-12T12:24:05.503Z,406.85
2023-03-12T12:27:00.165Z,411.60
2023-03-12T12:30:05.014Z,411.85
2023-03-12T12:33:09.696Z,426.42
2023-03-12T12:35:43.242Z,429.00
2023-03-12T12:38:18.667Z,440.20
2023-03-12T12:40:54.768Z,451.45
2023-03-12T12:43:42.443Z,457.00
2023-03-12T12:46:30.645Z,452.52
2023-03-12T12:49:34.262Z,465.27
2023-03-12T12:52:06.949Z,456.92
2023-03-12T12:55:16.916Z,470.40
2023-03-12T12:57:57.730Z,458.10
2023-03-12T13:00:37.173Z,467.92
2023-03-12T13:03:04.452Z,474.88
2023-03-12T13:05:37.532Z,473.58
2023-03-12T13:08:08.898Z,473.48
2023-03-12T13:10:35.856Z,471.58
2023-03-12T13:13:22.396Z,473.17
2023-03-12T13:15:49.911Z,464.67
2023-03-12T13:18:26.812Z,480.65
2023-03-12T13:20:53.677Z,473.58
2023-03-12T13:23:58.692Z,475.85
2023-03-12T13:27:13.672Z,462.02
2023-03-12T13:29:42.556Z,460.75
2023-03-12T13:32:35.399Z,467.23
2023-03-12T13:35:36.693Z,480.83
2023-03-12T13:38:12.878Z,461.35
2023-03-12T13:41:03.272Z,464.60
2023-03-12T13:43:49.005Z,468.38
2023-03-12T13:46:15.960Z,463.58
2023-03-12T13:48:48.115Z,474.73
2023-03-12T13:51:24.515Z,472.40
2023-03-12T13:53:57.275Z,476.65
2023-03-12T13:56:33.512Z,465.50
2023-03-12T13:59:05.216Z,470.50
2023-03-12T14:01:39.493Z,482.15
2023-03-12T14:04:16.232Z,472.77
2023-03-12T14:07:14.410Z,467.92
2023-03-12T14:09:44.038Z,469.08
2023-03-12T14:13:10.390Z,479.27
2023-03-12T14:16:10.956Z,470.48
2023-03-12T14:18:39.794Z,471.55
2023-03-12T14:21:15.182Z,479.30
2023-03-12T14:23:52.780Z,468.95
2023-03-12T14:26:25.270Z,460.45
2023-03-12T14:29:02.365Z,465.95
2023-03-12T14:31:31.797Z,455.58
2023-03-12T14:34:16.563Z,460.13
2023-03-12T14:37:14.862Z,447.27
2023-03-12T14:39:55.861Z,447.15
2023-03-12T14:42:28.725Z,442.52
2023-03-12T14:45:26.023Z,456.73
2023-03-12T14:47:58.599Z,439.40
2023-03-12T14:50:38.163Z,437.88
2023-03-12T14:53:20.329Z,459.10
2023-03-12T14:55:47.327Z,430.70
2023-03-12T14:58:20.678Z,439.08
2023-03-12T15:00:58.729Z,434.38
2023-03-12T15:03:27.748Z,437.25
2023-03-12T15:05:56.057Z,432.20
2023-03-12T15:08:23.844Z,440.35
2023-03-12T15:10:57.805Z,431.52
2023-03-12T15:13:27.399Z,437.52
2023-03-12T15:15:56.130Z,439.02
2023-03-12T15:18:29.794Z,433.98
2023-03-12T15:20:59.138Z,447.50
2023-03-12T15:23:29.395Z,442.58
2023-03-12T15:26:13.496Z,443.00
2023-03-12T15:28:40.700Z,433.48
2023-03-12T15:31:16.892Z,441.35
2023-03-12T15:33:45.134Z,438.42
2023-03-12T15:36:15.016Z,434.83
2023-03-12T15:39:00.259Z,429.55
2023-03-12T15:41:45.813Z,435.45
2023-03-12T15:44:29.068Z,428.63
2023-03-12T15:47:15.743Z,442.70
2023-03-12T15:49:43.212Z,434.15
2023-03-12T15:52:18.731Z,431.35
2023-03-12T15:55:20.965Z,431.60
2023-03-12T15:57:55.149Z,426.25
2023-03-12T16:00:29.637Z,436.13
2023-03-12T16:03:06.365Z,433.90
2023-03-12T16:05:37.762Z,431.48
2023-03-12T16:08:30.861Z,436.65
2023-03-12T16:10:58.076Z,415.65
2023-03-12T16:13:31.322Z,423.17
2023-03-12T16:16:00.270Z,423.73
2023-03-12T16:18:33.106Z,428.85
2023-03-12T16:21:00.147Z,435.23
2023-03-12T16:23:27.327Z,431.63
2023-03-12T16:25:56.487Z,418.08
2023-03-12T16:28:24.819Z,422.13
2023-03-12T16:30:54.010Z,419.17
2023-03-12T16:33:24.063Z,433.90
2023-03-12T16:35:51.879Z,434.75
2023-03-12T16:38:19.088Z,426.27
2023-03-12T16:40:50.139Z,423.98
2023-03-12T16:43:25.324Z,437.15
2023-03-12T16:45:54.227Z,427.65
2023-03-12T16:48:24.598Z,429.90
2023-03-12T16:50:55.852Z,413.80
2023-03-12T16:53:23.723Z,415.75
2023-03-12T16:56:01.341Z,415.30
2023-03-12T16:58:30.261Z,420.70
2023-03-12T17:00:58.273Z,419.38
2023-03-12T17:03:36.034Z,411.15
2023-03-12T17:06:04.489Z,401.70
2023-03-12T17:08:31.642Z,414.92
2023-03-12T17:11:00.121Z,412.85
2023-03-12T17:13:29.709Z,399.67
2023-03-12T17:15:57.070Z,393.65
2023-03-12T17:18:24.427Z,400.60
2023-03-12T17:20:52.075Z,389.58
2023-03-12T17:23:20.041Z,393.85
2023-03-12T17:25:47.272Z,386.27
2023-03-12T17:28:15.524Z,389.00
2023-03-12T17:30:44.554Z,376.92
2023-03-12T17:33:17.278Z,391.25
2023-03-12T17:35:45.128Z,365.13
2023-03-12T17:38:13.281Z,381.60
2023-03-12T17:40:45.047Z,390.50
2023-03-12T17:43:13.234Z,364.80
2023-03-12T17:45:40.470Z,360.95
2023-03-12T17:48:08.020Z,360.25
2023-03-12T17:50:36.719Z,367.70
2023-03-12T17:53:04.269Z,349.20
2023-03-12T17:55:31.578Z,378.95
2023-03-12T17:57:58.858Z,365.30
2023-03-12T18:00:26.154Z,356.73
2023-03-12T18:02:53.199Z,348.63
2023-03-12T18:05:20.695Z,343.70
2023-03-12T18:07:48.963Z,361.65
2023-03-12T18:10:16.266Z,344.42
2023-03-12T18:12:44.209Z,338.77
2023-03-12T18:15:14.401Z,348.27
2023-03-12T18:17:43.236Z,336.00
2023-03-12T18:20:16.649Z,335.70
2023-03-12T18:22:46.708Z,331.25
2023-03-12T18:25:14.250Z,329.48
2023-03-12T18:27:41.801Z,331.58
2023-03-12T18:30:12.742Z,336.63
2023-03-12T18:32:42.517Z,328.88
2023-03-12T18:35:10.117Z,330.92
2023-03-12T18:37:37.201Z,326.40
2023-03-12T18:40:05.768Z,400.08
2023-03-12T18:42:32.845Z,361.00
2023-03-12T18:44:59.892Z,365.15
2023-03-12T18:47:27.681Z,345.75
2023-03-12T18:49:56.039Z,318.73
2023-03-12T18:52:23.073Z,319.60
2023-03-12T18:54:50.087Z,329.05
2023-03-12T18:57:17.064Z,329.63
2023-03-12T18:59:46.090Z,326.02
2023-03-12T19:02:13.371Z,332.30
2023-03-12T19:04:40.611Z,327.33
2023-03-12T19:07:08.594Z,316.75
2023-03-12T19:09:35.600Z,321.27
2023-03-12T19:12:02.978Z,316.95
2023-03-12T19:14:30.273Z,326.33
2023-03-12T19:16:58.134Z,323.42
2023-03-12T19:19:25.170Z,345.77
2023-03-12T19:21:52.168Z,327.00
2023-03-12T19:24:19.362Z,353.15
2023-03-12T19:26:46.388Z,333.80
2023-03-12T19:29:15.218Z,338.50
2023-03-12T19:31:43.280Z,332.77
2023-03-12T19:34:10.288Z,341.05
2023-03-12T19:36:37.275Z,342.02
2023-03-12T19:39:11.985Z,330.55
2023-03-12T19:41:45.823Z,335.05
2023-03-12T19:44:12.782Z,339.63
2023-03-12T19:46:42.956Z,341.02
2023-03-12T19:49:10.122Z,334.90
2023-03-12T19:51:40.214Z,338.20
2023-03-12T19:54:07.762Z,348.70
2023-03-12T19:56:34.887Z,343.48
2023-03-12T19:59:01.885Z,340.48
2023-03-12T20:01:28.901Z,334.75
2023-03-12T20:03:55.897Z,338.08
2023-03-12T20:06:22.919Z,341.60
2023-03-12T20:08:50.029Z,334.05
2023-03-12T20:11:16.989Z,336.33
2023-03-12T20:13:43.989Z,334.00
2023-03-12T20:16:13.288Z,334.85
2023-03-12T20:18:40.603Z,341.05
2023-03-12T20:21:07.640Z,333.15
2023-03-12T20:23:34.828Z,331.42
2023-03-12T20:26:01.956Z,332.38
2023-03-12T20:28:28.907Z,332.30
2023-03-12T20:30:55.940Z,332.65
2023-03-12T20:33:22.938Z,328.15
2023-03-12T20:35:50.513Z,332.33
2023-03-12T20:38:17.597Z,326.55
2023-03-12T20:40:47.670Z,327.27
2023-03-12T20:43:14.680Z,331.75
2023-03-12T20:45:41.785Z,327.48
2023-03-12T20:48:10.413Z,327.13
2023-03-12T20:50:39.222Z,322.13
2023-03-12T20:53:07.351Z,321.80
2023-03-12T20:55:34.371Z,325.63
2023-03-12T20:58:01.333Z,315.92
2023-03-12T21:00:28.384Z,323.38
2023-03-12T21:02:55.566Z,320.08
2023-03-12T21:05:25.003Z,325.67
2023-03-12T21:07:54.015Z,319.58
2023-03-12T21:10:21.645Z,312.27
2023-03-12T21:12:48.592Z,314.58
2023-03-12T21:15:15.856Z,323.65
2023-03-12T21:17:42.860Z,323.35
2023-03-12T21:20:14.407Z,308.30
2023-03-12T21:22:43.482Z,310.40
2023-03-12T21:25:11.750Z,310.70
2023-03-12T21:27:49.772Z,307.88
2023-03-12T21:30:18.240Z,306.30
2023-03-12T21:32:45.374Z,302.50
2023-03-12T21:35:12.555Z,299.90
2023-03-12T21:37:39.858Z,301.42
2023-03-12T21:40:09.130Z,299.42
2023-03-12T21:42:36.227Z,311.40
2023-03-12T21:45:03.751Z,298.52
2023-03-12T21:47:30.943Z,298.17
2023-03-12T21:49:57.994Z,304.17
2023-03-12T21:52:25.237Z,305.17
2023-03-12T21:54:52.379Z,312.90
2023-03-12T21:57:19.399Z,320.88
2023-03-12T21:59:46.516Z,313.40
2023-03-12T22:02:15.295Z,319.40
2023-03-12T22:04:42.492Z,316.02
2023-03-12T22:07:09.602Z,322.05
2023-03-12T22:09:36.656Z,326.25
2023-03-12T22:12:04.209Z,317.55
2023-03-12T22:14:31.233Z,322.77
2023-03-12T22:16:58.277Z,313.52
2023-03-12T22:19:25.485Z,314.70
2023-03-12T22:21:52.565Z,312.30
2023-03-12T22:24:19.631Z,315.88
2023-03-12T22:26:47.243Z,301.90
2023-03-12T22:29:14.320Z,305.55
2023-03-12T22:31:41.435Z,300.23
2023-03-12T22:34:09.093Z,308.17
2023-03-12T22:36:38.724Z,299.40
2023-03-12T22:39:05.970Z,297.27
2023-03-12T22:41:33.372Z,302.77
2023-03-12T22:44:07.307Z,305.10
2023-03-12T22:46:35.244Z,315.85
2023-03-12T22:49:04.331Z,317.27
2023-03-12T22:51:33.228Z,320.27
2023-03-12T22:54:00.782Z,324.67
2023-03-12T22:56:30.471Z,321.45
2023-03-12T22:58:57.602Z,323.50
2023-03-12T23:01:25.209Z,327.00
2023-03-12T23:03:53.341Z,329.00
2023-03-12T23:06:26.413Z,321.25
2023-03-12T23:08:57.012Z,321.05
2023-03-12T23:11:26.295Z,322.45
2023-03-12T23:13:54.378Z,326.80
2023-03-12T23:16:25.325Z,319.25
2023-03-12T23:18:53.287Z,320.70
2023-03-12T23:21:23.187Z,319.20
2023-03-12T23:23:50.964Z,314.05
2023-03-12T23:26:26.720Z,315.08
2023-03-12T23:28:58.977Z,306.95
2023-03-12T23:31:28.139Z,300.00
2023-03-12T23:33:56.787Z,305.17
2023-03-12T23:36:24.390Z,296.48
2023-03-12T23:38:51.725Z,298.23
2023-03-12T23:41:25.223Z,295.38
2023-03-12T23:43:53.330Z,290.17
2023-03-12T23:46:20.750Z,302.45
2023-03-12T23:48:48.148Z,303.35
2023-03-12T23:51:21.682Z,304.83
2023-03-12T23:53:51.632Z,315.15
2023-03-12T23:56:22.510Z,316.00
2023-03-12T23:58:51.117Z,331.90
